Historyczne dane pomiarowe

Dodano dane terminowe – wersja testowa.

Dane z okresu 1951-2019

Wersja bazy: 1.34 [2019-03-16, lista zmian], aktualizacja planowana na 2019-04-15

Dane meteo z obszaru Polski uzyskane na podstawie danych udostępnionych przez Instytut Meteorologii i Gospodarki Wodnej – Państwowy Instytut Badawczy.

 

Wybierz Datę:    

       

TemperaturaWilgotnośćZachmurzenieWiatrCiśnienieWidzialnośćZjawiska
 Data    tng td wb rh cc ccl cl cm ch dir g1 g2 mslp ppp      
1999-08-08 00:00:00 17.9--- 16.8 17.293wxwxwx3wx--1006.0 982.0 0.3---wxw1
1999-08-08 01:00:00 17.8--- 16.9 17.294wxwxwxwx2wx--1004.8 980.8----wx
1999-08-08 02:00:00 17.9--- 16.6 17.192wxwxwxwx2wx--1005.0 981.0----wx
1999-08-08 03:00:00 17.7--- 16.8 17.194wxwxwxwx1wx--1005.1 981.1----wxw1
1999-08-08 04:00:00 17.0--- 16.2 16.595wxwxwxwx0wx--1005.2 981.2----wx
1999-08-08 05:00:00 17.3--- 16.5 16.895wxwxwxwx0wx--1005.2 981.2----wx
1999-08-08 06:00:00 19.4--- 17.4 18.188wxwxwxwx1wx--1004.8 981.0 2.3---wxw1
1999-08-08 07:00:00 21.7--- 17.9 19.279wxwxwx1wx--1004.1 980.5----wx
1999-08-08 08:00:00 23.2--- 16.6 18.966wxwxwxwx3wx--1003.8 980.3----wx
1999-08-08 09:00:00 24.1--- 17.6 19.867wxwxwxwx4wx--1003.5 980.1----wx
1999-08-08 10:00:00 25.8--- 18.0 20.662wxwxwxwx3wx--1003.0 979.7----wx
1999-08-08 11:00:00 26.8--- 18.2 21.059wxwxwxwx3wx--1002.6 979.4----wx
1999-08-08 12:00:00 26.7--- 17.9 20.858wxwxwx4wx--1002.6 979.4 0.0---wx
1999-08-08 13:00:00 27.5--- 17.1 20.653wxwxwxwx5wx--1002.6 979.4----wx
1999-08-08 14:00:00 28.1--- 16.4 20.449wxwxwxwx4wx--1002.3 979.2----wx
1999-08-08 15:00:00 28.7--- 17.1 21.050wxwxwxwx3wx--1002.0 978.9----wx
1999-08-08 16:00:00 28.1--- 15.3 19.846wxwxwxwx4wx--1002.2 979.1----wx
1999-08-08 17:00:00 26.6--- 17.2 20.456wxwxwxwx4wx--1002.6 979.4----wx
1999-08-08 18:00:00 24.8--- 17.5 20.064wxwxwxwx2wx--1003.2 979.8 0.0---wx
1999-08-08 19:00:00 23.0--- 17.5 19.471wxwxwx3wx--1003.9 980.4----wx
1999-08-08 20:00:00 21.8--- 18.0 19.379wxwxwx2wx--1004.5 980.9----wx
1999-08-08 21:00:00 21.0--- 17.5 18.780wxwx2wx--1004.4 980.7----wx
1999-08-08 22:00:00 20.0--- 17.4 18.385wxwxwx2wx--1005.0 981.2----wx
1999-08-08 23:00:00 19.2--- 17.0 17.887wxwxwx2wx--1005.2 981.3----wx

 

Źródłem pochodzenia danych jest Instytut Meteorologii i Gospodarki Wodnej – Państwowy Instytut Badawczy. Dane Instytutu Meteorologii i Gospodarki Wodnej – Państwowego Instytutu Badawczego zostały przetworzone.

Dane źródłowe można odnaleźć na stronie https://dane.imgw.pl